Time;durP1;ratioP1;P1;durP2;ratioP2;P2;SDS_P1;SDS_P2;PMS_P1;PMS_P2;Temp;Humidity;BMP_temperature;BMP_pressure;BME280_temperature;BME280_humidity;BME280_pressure;Samples;Min_cycle;Max_cycle;Signal;HPM_P1;HPM_P2
2021/06/02 04:39:27;;;;;;;2.55;1.67;;;;;;;10.70;99.66;99583.91;1739150;79;21149;-39
2021/06/02 04:41:59;;;;;;;2.87;2.10;;;;;;;10.71;99.48;99589.12;1723141;81;21672;-43
2021/06/02 04:44:31;;;;;;;4.42;1.72;;;;;;;10.73;99.59;99592.60;1706078;81;21154;-39
2021/06/02 04:47:00;;;;;;;2.15;1.60;;;;;;;10.75;99.63;99592.13;1697538;81;21076;-41
2021/06/02 04:49:50;;;;;;;1.80;1.70;;;;;;;10.76;99.32;99600.40;1712458;81;21063;-40
2021/06/02 04:52:59;;;;;;;2.40;1.77;;;;;;;10.77;99.36;99592.10;1710796;80;21129;-43
2021/06/02 04:56:11;;;;;;;2.95;1.70;;;;;;;10.77;99.45;99590.80;1726769;81;21198;-41
2021/06/02 04:59:19;;;;;;;1.55;1.45;;;;;;;10.78;99.79;99593.38;1731631;81;21162;-39
2021/06/02 05:02:28;;;;;;;1.67;1.57;;;;;;;10.80;99.77;99583.79;1720021;81;21078;-42
2021/06/02 05:05:29;;;;;;;1.98;1.77;;;;;;;10.82;99.67;99578.53;1732640;81;21091;-39
2021/06/02 05:08:40;;;;;;;1.75;1.65;;;;;;;10.85;99.57;99571.97;1726541;82;21106;-45
2021/06/02 05:11:22;;;;;;;1.80;1.70;;;;;;;10.86;99.62;99573.24;1717298;82;21151;-46
2021/06/02 05:14:44;;;;;;;5.30;2.85;;;;;;;10.91;99.60;99584.52;1732512;80;21051;-44
2021/06/02 05:17:25;;;;;;;2.45;1.77;;;;;;;10.93;99.57;99584.50;1728668;80;21117;-43
2021/06/02 05:23:52;;;;;;;1.80;1.70;;;;;;;11.04;99.52;99598.31;1717646;81;21157;-41
2021/06/02 05:27:11;;;;;;;2.25;1.62;;;;;;;11.07;98.68;99605.25;1718493;81;21097;-41
2021/06/02 05:30:19;;;;;;;2.27;2.02;;;;;;;11.05;98.45;99602.66;1729571;81;21116;-42
2021/06/02 05:37:26;;;;;;;5.40;2.35;;;;;;;11.05;98.67;99602.66;1723366;80;21138;-43
2021/06/02 05:40:52;;;;;;;2.95;2.65;;;;;;;11.07;99.08;99602.18;1668900;83;21977;-42
2021/06/02 05:43:50;;;;;;;2.80;2.50;;;;;;;11.11;99.06;99607.81;1708606;82;21099;-39
2021/06/02 05:46:55;;;;;;;3.37;2.62;;;;;;;11.15;99.03;99612.13;1729103;80;21487;-44
2021/06/02 05:50:03;;;;;;;2.80;2.50;;;;;;;11.16;99.10;99611.69;1734667;80;21594;-40
2021/06/02 05:52:59;;;;;;;4.05;3.12;;;;;;;11.16;99.29;99615.17;1730651;80;21804;-39
2021/06/02 05:55:48;;;;;;;4.35;3.30;;;;;;;11.15;99.45;99618.67;1707872;81;21098;-42
2021/06/02 05:58:55;;;;;;;7.80;5.05;;;;;;;11.14;99.61;99618.26;1727944;80;21091;-43
2021/06/02 06:02:07;;;;;;;7.50;5.28;;;;;;;11.16;99.75;99620.84;1700894;81;21130;-43
2021/06/02 06:05:16;;;;;;;4.65;4.00;;;;;;;11.16;99.58;99613.86;1678132;83;21674;-39
2021/06/02 06:08:11;;;;;;;6.58;3.55;;;;;;;11.18;99.61;99612.08;1631413;85;21740;-44
2021/06/02 06:11:11;;;;;;;4.92;4.37;;;;;;;11.23;99.62;99619.01;1664857;84;21748;-41
2021/06/02 06:17:36;;;;;;;5.72;3.47;;;;;;;11.28;99.25;99618.51;1598039;87;21147;-39
2021/06/02 06:20:34;;;;;;;6.05;4.87;;;;;;;11.31;98.84;99614.11;1607254;85;21194;-44
2021/06/02 06:24:04;;;;;;;6.50;3.55;;;;;;;11.35;98.67;99619.70;1602520;87;21287;-44
2021/06/02 06:27:05;;;;;;;5.28;4.03;;;;;;;11.39;98.43;99616.16;1613106;86;21173;-38
2021/06/02 06:29:50;;;;;;;9.93;4.80;;;;;;;11.41;98.14;99620.92;1566515;88;21188;-38
2021/06/02 06:32:19;;;;;;;8.85;4.90;;;;;;;11.44;98.09;99625.27;1594174;86;21301;-42
2021/06/02 06:34:47;;;;;;;14.98;8.35;;;;;;;11.46;97.97;99625.66;1607842;86;21514;-39
2021/06/02 06:40:05;;;;;;;9.20;5.35;;;;;;;11.45;97.70;99620.00;1665370;82;21167;-40
2021/06/02 06:42:41;;;;;;;9.75;5.83;;;;;;;11.46;97.65;99624.80;1685146;82;21103;-40
2021/06/02 06:45:25;;;;;;;9.03;4.67;;;;;;;11.48;97.81;99624.77;1698368;82;21699;-43
2021/06/02 06:48:14;;;;;;;19.23;5.37;;;;;;;11.48;97.85;99627.39;1629833;83;21974;-40
2021/06/02 06:54:35;;;;;;;12.90;5.35;;;;;;;11.53;98.02;99624.27;1697858;81;21102;-43
2021/06/02 07:01:52;;;;;;;8.95;5.03;;;;;;;11.58;97.69;99632.92;1690509;82;21861;-43
2021/06/02 07:04:33;;;;;;;7.97;4.25;;;;;;;11.60;97.47;99635.09;1698519;82;21141;-43
2021/06/02 07:07:11;;;;;;;7.83;4.60;;;;;;;11.64;97.47;99634.14;1684996;83;21834;-39
2021/06/02 07:10:02;;;;;;;11.97;5.35;;;;;;;11.66;97.13;99637.18;1665157;83;21933;-40
2021/06/02 07:12:32;;;;;;;9.30;5.45;;;;;;;11.69;97.06;99642.80;1693595;82;21150;-39
2021/06/02 07:15:00;;;;;;;10.32;4.40;;;;;;;11.72;97.28;99642.33;1703787;81;21109;-43
2021/06/02 07:17:27;;;;;;;7.33;3.75;;;;;;;11.77;97.19;99647.50;1713963;82;21085;-44
2021/06/02 07:22:55;;;;;;;7.53;4.78;;;;;;;11.84;96.82;99659.66;1681501;81;22038;-45
2021/06/02 07:26:01;;;;;;;5.08;3.58;;;;;;;11.88;96.78;99659.14;1697009;81;21084;-43
2021/06/02 07:29:04;;;;;;;6.45;3.77;;;;;;;11.91;96.66;99663.05;1700181;82;21134;-43
2021/06/02 07:36:01;;;;;;;9.05;3.98;;;;;;;11.99;96.16;99669.02;1715668;82;21752;-40
2021/06/02 07:38:38;;;;;;;9.43;4.10;;;;;;;12.04;95.37;99665.88;1733422;80;21197;-40
2021/06/02 07:41:22;;;;;;;10.43;4.17;;;;;;;12.05;95.68;99659.74;1685652;82;21190;-42
2021/06/02 07:48:51;;;;;;;7.65;3.33;;;;;;;12.12;95.65;99644.81;1700145;80;21133;-42
2021/06/02 08:00:52;;;;;;;6.05;3.33;;;;;;;12.23;95.43;99660.78;1720843;81;20209;-39
2021/06/02 08:03:26;;;;;;;4.10;2.70;;;;;;;12.26;95.25;99661.16;1675805;83;21078;-40
2021/06/02 08:09:51;;;;;;;3.30;2.30;;;;;;;12.30;94.91;99660.67;1672281;83;21126;-44
2021/06/02 08:12:19;;;;;;;4.33;2.42;;;;;;;12.36;94.21;99651.39;1668397;84;21227;-39
2021/06/02 08:14:46;;;;;;;4.03;2.08;;;;;;;12.44;94.42;99649.03;1616769;86;21697;-44
2021/06/02 08:17:23;;;;;;;2.72;1.80;;;;;;;12.55;94.39;99634.86;1646590;84;21197;-40
2021/06/02 08:20:14;;;;;;;4.35;1.98;;;;;;;12.61;93.35;99634.75;1648103;84;21093;-44
2021/06/02 08:23:08;;;;;;;1.70;1.60;;;;;;;12.64;93.00;99643.44;1655843;83;21139;-40
2021/06/02 08:25:46;;;;;;;3.45;1.72;;;;;;;12.65;92.95;99653.04;1647894;84;21203;-40
2021/06/02 08:28:24;;;;;;;1.80;1.40;;;;;;;12.67;93.07;99657.80;1606527;86;21075;-41
2021/06/02 08:30:53;;;;;;;1.77;1.45;;;;;;;12.66;92.65;99662.64;1598374;87;21099;-40
2021/06/02 08:33:25;;;;;;;2.98;1.50;;;;;;;12.64;92.24;99667.48;1665867;82;22761;-40
2021/06/02 08:36:23;;;;;;;1.45;1.35;;;;;;;12.63;92.25;99677.56;1679202;84;21712;-44
2021/06/02 08:42:48;;;;;;;3.70;1.00;;;;;;;12.64;91.87;99673.63;1712490;77;21300;-42
2021/06/02 08:45:17;;;;;;;1.17;1.02;;;;;;;12.63;91.71;99673.17;1701102;81;21568;-41
2021/06/02 08:47:44;;;;;;;1.67;1.12;;;;;;;12.63;91.62;99678.42;1667012;83;21811;-42
2021/06/02 08:50:13;;;;;;;5.25;1.10;;;;;;;12.63;91.95;99679.73;1674943;82;21730;-44
2021/06/02 08:52:53;;;;;;;1.20;1.10;;;;;;;12.65;92.22;99679.28;1690932;80;21409;-44
2021/06/02 08:55:53;;;;;;;2.37;1.52;;;;;;;12.71;91.84;99680.93;1666434;79;21067;31
2021/06/02 08:58:22;;;;;;;1.00;1.00;;;;;;;12.77;91.98;99679.50;1679560;83;21092;-43
2021/06/02 09:00:54;;;;;;;5.10;1.50;;;;;;;12.79;92.22;99681.19;1671750;82;21746;-44
2021/06/02 09:03:21;;;;;;;;;;;;;;;12.85;92.27;99691.16;1681194;82;21749;-39
2021/06/02 09:05:50;;;;;;;2.95;1.50;;;;;;;12.89;91.39;99695.47;1689877;83;20216;-44
2021/06/02 09:08:19;;;;;;;3.47;1.37;;;;;;;12.87;91.14;99703.80;1700859;82;21592;-41
2021/06/02 09:10:48;;;;;;;1.67;1.27;;;;;;;12.87;91.14;99695.92;1697485;82;21107;-40
2021/06/02 09:13:22;;;;;;;1.60;1.50;;;;;;;12.87;91.14;99691.57;1699333;83;21049;-42
2021/06/02 09:15:54;;;;;;;1.92;1.55;;;;;;;12.86;91.26;99702.08;1686115;82;21103;-40
2021/06/02 09:18:22;;;;;;;2.05;1.42;;;;;;;12.90;91.80;99701.13;1697381;81;21740;-41
2021/06/02 09:20:58;;;;;;;4.70;1.65;;;;;;;12.92;91.54;99701.51;1684371;81;21097;-44
2021/06/02 09:23:44;;;;;;;4.17;1.45;;;;;;;12.95;90.66;99715.05;1693555;81;21425;-44
2021/06/02 09:26:20;;;;;;;4.25;2.02;;;;;;;12.96;90.83;99714.14;1649204;83;21097;-41
2021/06/02 09:29:09;;;;;;;3.05;1.92;;;;;;;12.96;90.66;99712.37;1708012;81;21070;-44
2021/06/02 09:31:47;;;;;;;7.40;2.20;;;;;;;12.96;90.70;99722.88;1698005;81;21218;-40
2021/06/02 09:34:24;;;;;;;3.17;2.00;;;;;;;12.95;90.80;99711.97;1718933;82;21026;-40
2021/06/02 09:37:06;;;;;;;3.80;1.70;;;;;;;12.92;91.06;99713.77;1668070;83;21444;-40
2021/06/02 09:39:42;;;;;;;2.35;1.82;;;;;;;12.88;91.47;99710.36;1686730;83;21055;-41
2021/06/02 09:42:27;;;;;;;2.30;1.98;;;;;;;12.88;91.53;99720.00;1651353;83;21808;-41
2021/06/02 09:45:10;;;;;;;3.10;1.65;;;;;;;12.86;91.50;99717.83;1679390;83;21741;-40
2021/06/02 09:47:47;;;;;;;5.70;1.72;;;;;;;12.85;91.81;99716.97;1699295;81;21123;-44
2021/06/02 09:50:21;;;;;;;4.67;2.10;;;;;;;12.86;91.71;99714.75;1696853;83;21660;-44
2021/06/02 09:52:52;;;;;;;2.67;1.70;;;;;;;12.88;91.69;99722.17;1677167;83;21085;-40
2021/06/02 09:55:32;;;;;;;2.02;1.75;;;;;;;12.88;91.60;99723.48;1718908;82;21637;-42
2021/06/02 09:58:14;;;;;;;2.00;1.60;;;;;;;12.89;91.47;99723.03;1711362;82;21086;-43
2021/06/02 10:00:44;;;;;;;1.87;1.50;;;;;;;12.91;91.16;99735.67;1705789;82;21182;-41
2021/06/02 10:03:15;;;;;;;5.72;1.90;;;;;;;12.92;90.86;99737.40;1677716;84;21133;-40
2021/06/02 10:05:47;;;;;;;3.00;1.80;;;;;;;12.96;91.45;99734.70;1710844;83;21090;-44
2021/06/02 10:08:34;;;;;;;1.60;1.50;;;;;;;13.00;91.68;99748.20;1706368;81;21101;-43
2021/06/02 10:13:41;;;;;;;7.45;1.67;;;;;;;13.03;90.77;99751.20;1717483;81;21080;-43
2021/06/02 10:16:10;;;;;;;1.32;1.12;;;;;;;13.01;90.94;99752.55;1674858;82;21218;-39
2021/06/02 10:18:39;;;;;;;1.12;1.00;;;;;;;13.01;90.82;99762.19;1682324;83;21216;-39
2021/06/02 10:21:13;;;;;;;6.40;3.33;;;;;;;13.00;90.65;99761.78;1709303;82;21081;-39
2021/06/02 10:23:45;;;;;;;4.85;3.35;;;;;;;13.00;90.51;99762.64;1661884;82;21069;-40
2021/06/02 10:26:17;;;;;;;1.87;1.60;;;;;;;12.99;90.56;99770.11;1652540;84;21180;-39
2021/06/02 10:28:46;;;;;;;4.55;1.37;;;;;;;13.00;90.08;99774.91;1638463;85;21024;-40
2021/06/02 10:31:15;;;;;;;1.05;1.00;;;;;;;12.99;90.22;99771.42;1698456;82;21800;-40
2021/06/02 10:33:42;;;;;;;2.85;1.47;;;;;;;13.02;89.86;99776.59;1696079;82;21114;-39
2021/06/02 10:38:50;;;;;;;1.42;1.30;;;;;;;13.05;89.80;99775.69;1687064;82;21566;-44
2021/06/02 10:41:45;;;;;;;3.17;1.42;;;;;;;13.08;89.53;99781.33;1665137;83;21111;-43
2021/06/02 10:44:21;;;;;;;3.67;1.20;;;;;;;13.07;89.38;99784.84;1641174;84;21061;-43
2021/06/02 10:46:49;;;;;;;1.60;1.50;;;;;;;13.05;89.40;99780.50;1667271;84;21121;-40
2021/06/02 10:51:45;;;;;;;2.30;1.65;;;;;;;13.07;89.62;99788.78;1709538;82;22054;-39
2021/06/02 10:54:19;;;;;;;3.50;1.52;;;;;;;13.08;89.74;99788.75;1686168;83;21088;-39
2021/06/02 10:57:02;;;;;;;6.17;1.35;;;;;;;13.09;89.79;99793.55;1692203;82;21258;-39
2021/06/02 10:59:41;;;;;;;5.42;1.98;;;;;;;13.10;90.12;99796.59;1658200;84;21642;-39
2021/06/02 11:05:06;;;;;;;1.85;1.62;;;;;;;13.14;89.69;99795.20;1711148;82;21735;-40
2021/06/02 11:07:51;;;;;;;5.67;1.62;;;;;;;13.14;89.45;99799.14;1651693;82;21770;-39
2021/06/02 11:10:22;;;;;;;1.35;1.17;;;;;;;13.17;89.56;99805.67;1692924;82;21097;-39
2021/06/02 11:13:06;;;;;;;3.98;1.65;;;;;;;13.20;90.13;99804.28;1630107;85;21224;-39
2021/06/02 11:15:46;;;;;;;3.27;1.30;;;;;;;13.20;90.22;99797.72;1647111;82;21061;-39
2021/06/02 11:18:21;;;;;;;2.77;1.50;;;;;;;13.21;90.31;99799.47;1696790;81;21192;-39
2021/06/02 11:20:58;;;;;;;1.95;1.50;;;;;;;13.22;90.23;99806.91;1624214;83;21248;-38
2021/06/02 11:23:34;;;;;;;2.50;1.40;;;;;;;13.17;90.50;99802.18;1599031;88;21139;-41
2021/06/02 11:26:30;;;;;;;1.35;1.17;;;;;;;13.16;91.01;99803.05;1692124;82;21182;-40
2021/06/02 11:29:09;;;;;;;1.72;1.27;;;;;;;13.18;91.48;99806.08;1675767;81;21681;-41
2021/06/02 11:31:42;;;;;;;2.65;1.60;;;;;;;13.18;91.66;99804.77;1671458;83;21237;-41
2021/06/02 11:34:33;;;;;;;1.82;1.50;;;;;;;13.18;91.72;99801.28;1682259;83;21129;-40
2021/06/02 11:37:07;;;;;;;3.02;2.05;;;;;;;13.15;91.90;99809.20;1662260;83;21113;-40
2021/06/02 11:39:40;;;;;;;3.85;1.92;;;;;;;13.12;92.58;99810.13;1651663;83;21057;-41
2021/06/02 11:42:14;;;;;;;1.75;1.65;;;;;;;13.09;92.83;99818.05;1640420;83;21125;-41
2021/06/02 11:44:48;;;;;;;1.67;1.57;;;;;;;13.08;93.40;99815.46;1655558;83;21064;-41
2021/06/02 11:47:19;;;;;;;3.33;1.90;;;;;;;13.03;93.93;99815.09;1686537;83;21819;-40
2021/06/02 11:49:48;;;;;;;4.60;2.00;;;;;;;12.99;94.18;99822.62;1672393;82;21144;-41
2021/06/02 11:52:17;;;;;;;2.83;2.17;;;;;;;12.97;94.89;99816.95;1700937;82;21249;-40
2021/06/02 11:54:57;;;;;;;2.60;2.40;;;;;;;12.94;95.35;99817.03;1669834;83;21056;-45
2021/06/02 11:57:34;;;;;;;2.05;1.90;;;;;;;12.89;95.84;99827.60;1630286;86;21221;-45
2021/06/02 12:00:12;;;;;;;3.52;2.27;;;;;;;12.86;96.27;99822.39;1661514;85;21175;-44
2021/06/02 12:02:48;;;;;;;4.08;1.95;;;;;;;12.84;96.62;99824.63;1661161;84;21241;-40
2021/06/02 12:05:27;;;;;;;9.70;2.67;;;;;;;12.82;97.11;99825.11;1656693;84;21045;-41
2021/06/02 12:07:59;;;;;;;5.42;2.20;;;;;;;12.81;97.42;99827.30;1685528;84;21636;-41
2021/06/02 12:10:30;;;;;;;3.83;2.30;;;;;;;12.81;97.92;99830.78;1617996;84;21594;-39
2021/06/02 12:13:00;;;;;;;4.22;2.58;;;;;;;12.80;98.39;99826.43;1670161;84;21100;-44
2021/06/02 12:15:43;;;;;;;3.10;2.27;;;;;;;12.81;98.74;99824.67;1691094;83;21117;-39
2021/06/02 12:18:13;;;;;;;4.05;2.22;;;;;;;12.84;99.02;99819.38;1677432;83;21826;-40
2021/06/02 12:20:43;;;;;;;6.67;2.12;;;;;;;12.87;99.36;99814.06;1683443;84;21098;-44
2021/06/02 12:23:11;;;;;;;2.37;2.17;;;;;;;12.90;99.37;99819.28;1689391;84;21736;-44
2021/06/02 12:25:42;;;;;;;4.53;2.83;;;;;;;12.91;99.21;99815.30;1596805;87;21131;-40
2021/06/02 12:30:38;;;;;;;3.02;1.87;;;;;;;12.92;99.13;99809.16;1636582;85;21105;-45
2021/06/02 12:33:14;;;;;;;4.30;1.77;;;;;;;12.93;99.33;99817.89;1644084;86;21152;-45
2021/06/02 12:38:25;;;;;;;1.72;1.60;;;;;;;12.96;99.74;99819.17;1708555;82;21198;-41
2021/06/02 12:40:56;;;;;;;1.50;1.40;;;;;;;12.97;99.96;99816.95;1669266;84;21198;-43
2021/06/02 12:43:37;;;;;;;2.08;1.45;;;;;;;12.96;99.97;99815.23;1704188;83;21069;-39
2021/06/02 12:46:13;;;;;;;1.52;1.42;;;;;;;12.96;100.00;99827.05;1666423;83;21666;-39
2021/06/02 12:48:41;;;;;;;2.15;1.62;;;;;;;12.95;100.00;99824.00;1672165;83;21092;-43
2021/06/02 12:51:17;;;;;;;3.75;2.05;;;;;;;12.96;100.00;99823.97;1684444;82;21130;-43
2021/06/02 12:53:48;;;;;;;3.20;1.92;;;;;;;12.99;100.00;99819.13;1662738;83;21102;-41
2021/06/02 12:58:42;;;;;;;3.12;2.42;;;;;;;13.04;100.00;99827.35;1706087;83;21095;-43
2021/06/02 13:01:12;;;;;;;3.08;2.37;;;;;;;13.07;100.00;99822.48;1717901;82;21095;-39
2021/06/02 13:03:53;;;;;;;4.22;2.33;;;;;;;13.09;100.00;99818.50;1701200;82;21181;-44
2021/06/02 13:06:23;;;;;;;3.37;2.35;;;;;;;13.11;100.00;99820.67;1691827;82;21226;-45
2021/06/02 13:08:51;;;;;;;8.95;2.37;;;;;;;13.14;100.00;99825.86;1717102;82;21085;-44
2021/06/02 13:11:31;;;;;;;2.70;2.20;;;;;;;13.15;100.00;99822.33;1695118;82;21158;-44
2021/06/02 13:13:53;;;;;;;3.10;2.12;;;;;;;13.16;100.00;99822.74;1722641;82;21089;-43
2021/06/02 13:16:24;;;;;;;2.55;2.17;;;;;;;13.17;100.00;99825.81;1691217;82;21170;-40
2021/06/02 13:21:24;;;;;;;4.10;1.55;;;;;;;13.22;100.00;99825.30;1720014;81;21161;-40
2021/06/02 13:23:55;;;;;;;2.30;1.80;;;;;;;13.24;100.00;99825.70;1715667;81;21093;-41
2021/06/02 13:26:27;;;;;;;4.35;1.65;;;;;;;13.27;100.00;99824.77;1713354;82;21706;-39
2021/06/02 13:28:55;;;;;;;2.10;1.70;;;;;;;13.30;100.00;99828.22;1695667;83;21218;-40
2021/06/02 13:31:39;;;;;;;3.85;1.67;;;;;;;13.33;100.00;99832.98;1609819;86;21637;-44
2021/06/02 13:34:06;;;;;;;3.08;2.22;;;;;;;13.34;100.00;99838.23;1644881;85;21795;-44
2021/06/02 13:36:37;;;;;;;2.42;1.80;;;;;;;13.34;100.00;99832.98;1679081;83;21112;-40
2021/06/02 13:39:16;;;;;;;3.80;1.77;;;;;;;13.37;100.00;99829.41;1691665;83;21071;-39
2021/06/02 13:41:45;;;;;;;3.58;1.92;;;;;;;13.39;100.00;99838.98;1682370;83;21130;-40
2021/06/02 13:46:56;;;;;;;1.37;1.22;;;;;;;13.42;100.00;99841.57;1691330;82;21313;-44
2021/06/02 13:49:41;;;;;;;2.33;1.82;;;;;;;13.44;100.00;99840.22;1712078;82;21114;-40
